createdAt,value
2022-08-26T00:02:03.054Z,12.45
2022-08-26T00:04:32.146Z,11.50
2022-08-26T00:07:00.105Z,12.55
2022-08-26T00:09:27.631Z,11.70
2022-08-26T00:11:55.593Z,11.77
2022-08-26T00:14:30.815Z,11.75
2022-08-26T00:16:58.879Z,11.63
2022-08-26T00:19:27.707Z,12.30
2022-08-26T00:21:55.819Z,12.65
2022-08-26T00:24:22.887Z,11.82
2022-08-26T00:26:52.465Z,11.50
2022-08-26T00:29:21.223Z,12.20
2022-08-26T00:31:48.292Z,12.93
2022-08-26T00:34:16.754Z,11.32
2022-08-26T00:36:51.904Z,11.60
2022-08-26T00:39:20.219Z,11.13
2022-08-26T00:41:49.105Z,13.00
2022-08-26T00:44:18.815Z,11.48
2022-08-26T00:46:56.743Z,12.65
2022-08-26T00:49:49.390Z,12.65
2022-08-26T00:52:21.550Z,13.10
2022-08-26T00:55:05.343Z,11.63
2022-08-26T00:57:35.428Z,12.93
2022-08-26T01:00:13.309Z,11.18
2022-08-26T01:02:46.847Z,13.23
2022-08-26T01:05:15.694Z,12.10
2022-08-26T01:07:42.988Z,11.43
2022-08-26T01:10:20.062Z,13.57
2022-08-26T01:12:52.974Z,12.95
2022-08-26T01:15:25.937Z,12.60
2022-08-26T01:20:50.720Z,11.27
2022-08-26T01:23:18.409Z,11.27
2022-08-26T01:26:01.278Z,11.98
2022-08-26T01:28:32.468Z,12.15
2022-08-26T01:31:01.594Z,12.65
2022-08-26T01:33:58.589Z,13.15
2022-08-26T01:36:27.215Z,11.88
2022-08-26T01:38:55.136Z,12.15
2022-08-26T01:41:27.546Z,12.82
2022-08-26T01:43:58.053Z,12.43
2022-08-26T01:46:28.580Z,12.10
2022-08-26T01:49:00.972Z,13.15
2022-08-26T01:51:30.424Z,12.75
2022-08-26T01:53:58.650Z,12.43
2022-08-26T01:56:33.239Z,12.35
2022-08-26T01:59:04.923Z,12.63
2022-08-26T02:01:33.789Z,12.65
2022-08-26T02:04:36.385Z,12.57
2022-08-26T02:07:09.225Z,12.95
2022-08-26T02:09:44.148Z,12.13
2022-08-26T02:12:15.090Z,13.65
2022-08-26T02:14:50.109Z,12.52
2022-08-26T02:17:23.959Z,13.10
2022-08-26T02:19:51.963Z,11.60
2022-08-26T02:22:22.309Z,11.80
2022-08-26T02:25:07.644Z,12.77
2022-08-26T02:27:37.560Z,12.18
2022-08-26T02:30:32.001Z,13.73
2022-08-26T02:33:04.426Z,13.00
2022-08-26T02:35:34.298Z,12.32
2022-08-26T02:38:02.583Z,12.35
2022-08-26T02:40:41.130Z,12.88
2022-08-26T02:43:13.088Z,12.40
2022-08-26T02:45:41.973Z,12.53
2022-08-26T02:48:17.170Z,12.63
2022-08-26T02:50:46.390Z,12.50
2022-08-26T02:53:13.696Z,13.38
2022-08-26T02:55:42.619Z,13.07
2022-08-26T02:58:11.566Z,12.68
2022-08-26T03:00:53.299Z,12.27
2022-08-26T03:03:22.479Z,12.57
2022-08-26T03:05:51.244Z,12.77
2022-08-26T03:08:21.168Z,12.55
2022-08-26T03:10:49.402Z,13.30
2022-08-26T03:13:19.083Z,12.40
2022-08-26T03:15:47.683Z,12.40
2022-08-26T03:18:14.958Z,12.98
2022-08-26T03:20:43.985Z,12.48
2022-08-26T03:23:11.889Z,12.60
2022-08-26T03:25:40.677Z,12.82
2022-08-26T03:28:09.545Z,12.77
2022-08-26T03:30:44.818Z,12.43
2022-08-26T03:33:16.382Z,11.88
2022-08-26T03:35:47.759Z,11.93
2022-08-26T03:38:21.310Z,11.93
2022-08-26T03:40:49.174Z,13.15
2022-08-26T03:43:19.289Z,13.68
2022-08-26T03:45:47.475Z,11.65
2022-08-26T03:48:14.436Z,12.05
2022-08-26T03:50:43.178Z,12.85
2022-08-26T03:53:13.079Z,13.50
2022-08-26T03:55:40.331Z,12.43
2022-08-26T03:58:07.364Z,11.82
2022-08-26T04:00:34.445Z,12.10
2022-08-26T04:03:01.565Z,12.25
2022-08-26T04:05:29.052Z,12.82
2022-08-26T04:07:56.854Z,13.40
2022-08-26T04:10:26.412Z,12.60
2022-08-26T04:12:58.920Z,13.23
2022-08-26T04:15:28.995Z,12.77
2022-08-26T04:17:58.557Z,12.52
2022-08-26T04:20:28.905Z,12.32
2022-08-26T04:22:56.828Z,12.13
2022-08-26T04:25:24.426Z,12.52
2022-08-26T04:27:53.290Z,12.45
2022-08-26T04:30:21.593Z,12.45
2022-08-26T04:32:50.550Z,12.30
2022-08-26T04:35:21.829Z,12.63
2022-08-26T04:37:52.954Z,13.65
2022-08-26T04:40:19.971Z,13.75
2022-08-26T04:42:47.313Z,13.65
2022-08-26T04:45:14.435Z,14.45
2022-08-26T04:47:42.230Z,13.45
2022-08-26T04:50:10.920Z,14.18
2022-08-26T04:52:38.448Z,13.77
2022-08-26T04:55:08.542Z,13.80
2022-08-26T04:57:36.647Z,15.85
2022-08-26T05:00:13.635Z,14.80
2022-08-26T05:02:41.543Z,14.57
2022-08-26T05:05:10.163Z,12.98
2022-08-26T05:07:38.057Z,13.30
2022-08-26T05:10:08.989Z,13.40
2022-08-26T05:12:38.493Z,14.38
2022-08-26T05:15:07.137Z,13.75
2022-08-26T05:17:34.069Z,14.45
2022-08-26T05:20:02.272Z,13.95
2022-08-26T05:22:30.958Z,13.70
2022-08-26T05:24:57.765Z,14.55
2022-08-26T05:27:24.567Z,15.13
2022-08-26T05:29:58.660Z,15.35
2022-08-26T05:32:27.584Z,13.98
2022-08-26T05:34:57.028Z,14.07
2022-08-26T05:37:25.440Z,14.93
2022-08-26T05:39:52.831Z,15.65
2022-08-26T05:42:20.259Z,16.05
2022-08-26T05:44:55.493Z,15.32
2022-08-26T05:47:24.290Z,14.38
2022-08-26T05:49:51.901Z,14.60
2022-08-26T05:52:19.502Z,15.68
2022-08-26T05:54:47.732Z,16.40
2022-08-26T05:57:15.789Z,18.00
2022-08-26T05:59:43.709Z,17.42
2022-08-26T06:02:11.636Z,15.65
2022-08-26T06:04:41.535Z,17.15
2022-08-26T06:07:09.909Z,15.10
2022-08-26T06:09:38.949Z,16.45
2022-08-26T06:12:07.305Z,16.85
2022-08-26T06:14:36.251Z,16.33
2022-08-26T06:17:04.199Z,15.38
2022-08-26T06:19:33.012Z,14.73
2022-08-26T06:22:23.570Z,15.98
2022-08-26T06:25:10.061Z,15.13
2022-08-26T06:27:37.595Z,16.40
2022-08-26T06:30:06.448Z,16.80
2022-08-26T06:32:33.793Z,17.55
2022-08-26T06:35:02.013Z,16.60
2022-08-26T06:37:29.532Z,16.45
2022-08-26T06:39:56.604Z,17.35
2022-08-26T06:42:25.328Z,15.65
2022-08-26T06:44:53.622Z,16.13
2022-08-26T06:47:22.162Z,16.65
2022-08-26T06:49:50.340Z,17.25
2022-08-26T06:52:24.270Z,16.77
2022-08-26T06:54:52.032Z,17.05
2022-08-26T06:57:20.852Z,15.82
2022-08-26T06:59:48.772Z,15.98
2022-08-26T07:02:18.273Z,15.45
2022-08-26T07:04:45.465Z,14.80
2022-08-26T07:07:17.929Z,16.63
2022-08-26T07:09:49.568Z,16.27
2022-08-26T07:12:21.574Z,15.95
2022-08-26T07:14:48.797Z,13.68
2022-08-26T07:17:17.592Z,15.20
2022-08-26T07:19:49.110Z,15.95
2022-08-26T07:22:16.431Z,16.65
2022-08-26T07:24:43.908Z,17.30
2022-08-26T07:27:15.253Z,15.07
2022-08-26T07:29:43.811Z,15.15
2022-08-26T07:32:14.342Z,15.38
2022-08-26T07:34:43.639Z,16.33
2022-08-26T07:37:11.239Z,14.27
2022-08-26T07:39:40.351Z,16.35
2022-08-26T07:42:10.393Z,14.98
2022-08-26T07:44:40.531Z,15.23
2022-08-26T07:47:25.601Z,14.50
2022-08-26T07:49:58.135Z,14.68
2022-08-26T07:52:29.941Z,12.83
2022-08-26T07:55:02.399Z,13.60
2022-08-26T07:57:30.563Z,13.82
2022-08-26T07:59:59.400Z,14.57
2022-08-26T08:02:28.344Z,14.18
2022-08-26T08:04:57.007Z,14.00
2022-08-26T08:07:38.544Z,15.00
2022-08-26T08:10:18.713Z,14.30
2022-08-26T08:12:50.358Z,14.80
2022-08-26T08:15:24.943Z,15.32
2022-08-26T08:17:54.757Z,13.57
2022-08-26T08:22:53.620Z,13.52
2022-08-26T08:25:21.639Z,12.90
2022-08-26T08:27:48.723Z,12.80
2022-08-26T08:30:20.937Z,14.18
2022-08-26T08:32:50.975Z,14.10
2022-08-26T08:35:23.113Z,12.70
2022-08-26T08:37:54.179Z,12.20
2022-08-26T08:40:23.988Z,13.52
2022-08-26T08:43:03.750Z,12.82
2022-08-26T08:45:38.211Z,11.98
2022-08-26T08:48:32.014Z,11.80
2022-08-26T08:51:30.363Z,12.65
2022-08-26T08:53:59.912Z,12.70
2022-08-26T08:56:40.101Z,12.48
2022-08-26T08:59:26.269Z,11.70
2022-08-26T09:02:20.882Z,10.68
2022-08-26T09:05:08.862Z,11.55
2022-08-26T09:08:12.656Z,11.63
2022-08-26T09:11:02.380Z,10.90
2022-08-26T09:13:32.033Z,10.82
2022-08-26T09:16:08.350Z,11.70
2022-08-26T09:19:19.215Z,10.88
2022-08-26T09:21:55.480Z,12.45
2022-08-26T09:24:28.539Z,11.05
2022-08-26T09:26:58.488Z,11.38
2022-08-26T09:29:35.990Z,11.43
2022-08-26T09:32:25.820Z,9.85
2022-08-26T09:35:08.232Z,11.45
2022-08-26T09:40:27.645Z,11.45
2022-08-26T09:43:15.963Z,10.98
2022-08-26T09:46:18.484Z,11.50
2022-08-26T09:48:45.841Z,11.73
2022-08-26T09:51:23.218Z,12.52
2022-08-26T09:53:54.403Z,12.15
2022-08-26T09:56:37.058Z,11.25
2022-08-26T09:59:12.072Z,11.70
2022-08-26T10:01:45.203Z,10.68
2022-08-26T10:04:21.308Z,11.52
2022-08-26T10:07:06.247Z,10.80
2022-08-26T10:09:40.516Z,10.15
2022-08-26T10:12:18.553Z,9.82
2022-08-26T10:14:57.427Z,11.10
2022-08-26T10:17:49.027Z,11.18
2022-08-26T10:20:34.400Z,11.27
2022-08-26T10:23:18.123Z,10.32
2022-08-26T10:26:05.073Z,11.35
2022-08-26T10:28:41.787Z,11.75
2022-08-26T10:31:30.925Z,11.23
2022-08-26T10:34:09.825Z,10.80
2022-08-26T10:37:13.623Z,9.43
2022-08-26T10:42:43.607Z,10.00
2022-08-26T10:45:17.007Z,10.43
2022-08-26T10:47:51.800Z,9.65
2022-08-26T10:50:21.311Z,9.23
2022-08-26T10:53:25.361Z,9.27
2022-08-26T10:56:26.603Z,8.95
2022-08-26T10:59:23.454Z,9.52
2022-08-26T11:02:14.910Z,9.07
2022-08-26T11:05:03.968Z,9.23
2022-08-26T11:07:57.116Z,9.02
2022-08-26T11:10:24.648Z,8.43
2022-08-26T11:13:03.569Z,8.93
2022-08-26T11:15:31.100Z,8.52
2022-08-26T11:18:04.855Z,9.57
2022-08-26T11:20:47.445Z,9.60
2022-08-26T11:23:23.221Z,9.85
2022-08-26T11:26:27.478Z,10.02
2022-08-26T11:29:04.563Z,10.00
2022-08-26T11:31:53.062Z,9.85
2022-08-26T11:34:54.995Z,10.77
2022-08-26T11:40:01.149Z,10.45
2022-08-26T11:42:41.712Z,10.32
2022-08-26T11:45:42.344Z,10.55
2022-08-26T11:48:32.404Z,10.18
2022-08-26T11:51:20.294Z,11.25
2022-08-26T11:53:48.440Z,11.90
2022-08-26T11:56:34.129Z,10.90
2022-08-26T11:59:19.521Z,9.98
2022-08-26T12:01:51.467Z,11.05
2022-08-26T12:04:34.000Z,10.23
2022-08-26T12:09:37.729Z,11.77
2022-08-26T12:12:34.769Z,11.93
2022-08-26T12:15:24.040Z,10.90
2022-08-26T12:17:54.469Z,13.40
2022-08-26T12:20:46.392Z,12.45
2022-08-26T12:23:47.284Z,11.48
2022-08-26T12:26:36.402Z,11.30
2022-08-26T12:29:20.161Z,11.65
2022-08-26T12:32:17.494Z,11.15
2022-08-26T12:34:49.095Z,11.23
2022-08-26T12:37:16.917Z,12.90
2022-08-26T12:39:48.747Z,13.43
2022-08-26T12:42:20.162Z,12.48
2022-08-26T12:45:01.588Z,12.65
2022-08-26T12:47:43.015Z,11.57
2022-08-26T12:50:27.410Z,12.18
2022-08-26T12:53:10.281Z,11.45
2022-08-26T12:56:00.836Z,10.13
2022-08-26T12:58:38.925Z,11.15
2022-08-26T13:01:09.373Z,10.43
2022-08-26T13:03:43.659Z,10.35
2022-08-26T13:06:23.668Z,10.20
2022-08-26T13:09:25.228Z,8.82
2022-08-26T13:11:54.935Z,8.18
2022-08-26T13:14:24.753Z,5.50
2022-08-26T13:16:53.557Z,5.53
2022-08-26T13:19:25.345Z,5.43
2022-08-26T13:21:59.761Z,5.50
2022-08-26T13:24:34.333Z,4.80
2022-08-26T13:27:04.261Z,4.55
2022-08-26T13:29:32.150Z,3.25
2022-08-26T13:32:00.853Z,3.30
2022-08-26T13:34:28.432Z,3.35
2022-08-26T13:36:57.912Z,3.10
2022-08-26T13:39:26.161Z,3.35
2022-08-26T13:41:53.752Z,3.50
2022-08-26T13:44:22.069Z,3.03
2022-08-26T13:46:49.130Z,3.63
2022-08-26T13:49:16.197Z,2.92
2022-08-26T13:51:43.694Z,3.60
2022-08-26T13:54:10.550Z,3.88
2022-08-26T13:56:38.404Z,3.78
2022-08-26T13:59:06.569Z,4.00
2022-08-26T14:01:34.903Z,4.53
2022-08-26T14:04:03.119Z,3.80
2022-08-26T14:06:30.952Z,4.50
2022-08-26T14:08:58.529Z,4.57
2022-08-26T14:11:26.089Z,4.20
2022-08-26T14:13:53.210Z,4.60
2022-08-26T14:16:34.717Z,4.40
2022-08-26T14:19:05.271Z,5.22
2022-08-26T14:21:36.680Z,4.95
2022-08-26T14:24:06.015Z,4.80
2022-08-26T14:26:33.074Z,5.40
2022-08-26T14:29:02.883Z,6.35
2022-08-26T14:31:33.166Z,6.68
2022-08-26T14:34:05.964Z,6.32
2022-08-26T14:36:33.505Z,7.28
2022-08-26T14:39:06.186Z,7.43
2022-08-26T14:41:34.820Z,7.68
2022-08-26T14:44:11.299Z,7.32
2022-08-26T14:46:48.541Z,8.50
2022-08-26T14:49:18.303Z,6.93
2022-08-26T14:51:45.956Z,6.72
2022-08-26T14:54:16.414Z,7.28
2022-08-26T14:57:05.543Z,8.07
2022-08-26T14:59:40.831Z,8.35
2022-08-26T15:02:13.909Z,8.30
2022-08-26T15:04:54.753Z,8.57
2022-08-26T15:07:22.213Z,7.70
2022-08-26T15:09:49.900Z,6.90
2022-08-26T15:12:16.812Z,6.78
2022-08-26T15:14:44.873Z,6.93
2022-08-26T15:17:11.693Z,6.57
2022-08-26T15:19:38.966Z,7.25
2022-08-26T15:22:06.117Z,6.47
2022-08-26T15:24:32.942Z,7.47
2022-08-26T15:26:59.754Z,6.97
2022-08-26T15:29:26.593Z,6.40
2022-08-26T15:31:57.178Z,7.47
2022-08-26T15:34:24.676Z,7.50
2022-08-26T15:36:51.605Z,8.07
2022-08-26T15:39:20.321Z,7.65
2022-08-26T15:41:47.387Z,8.20
2022-08-26T15:44:18.958Z,8.15
2022-08-26T15:46:48.440Z,7.90
2022-08-26T15:49:17.604Z,7.93
2022-08-26T15:51:46.915Z,8.00
2022-08-26T15:54:16.684Z,7.47
2022-08-26T15:56:44.383Z,7.80
2022-08-26T15:59:12.118Z,8.13
2022-08-26T16:01:39.660Z,6.80
2022-08-26T16:04:07.351Z,7.72
2022-08-26T16:06:39.727Z,7.80
2022-08-26T16:09:07.579Z,8.02
2022-08-26T16:11:38.443Z,7.18
2022-08-26T16:14:07.102Z,6.97
2022-08-26T16:16:39.195Z,7.63
2022-08-26T16:19:07.902Z,7.82
2022-08-26T16:21:35.752Z,7.97
2022-08-26T16:24:04.614Z,7.63
2022-08-26T16:26:34.638Z,7.35
2022-08-26T16:29:04.234Z,7.40
2022-08-26T16:31:31.118Z,7.13
2022-08-26T16:33:58.360Z,7.22
2022-08-26T16:36:25.298Z,7.28
2022-08-26T16:38:55.955Z,7.55
2022-08-26T16:41:26.398Z,7.07
2022-08-26T16:43:54.478Z,7.13
2022-08-26T16:46:25.529Z,7.68
2022-08-26T16:48:58.643Z,7.13
2022-08-26T16:51:27.850Z,6.75
2022-08-26T16:53:57.454Z,6.65
2022-08-26T16:56:33.597Z,6.88
2022-08-26T16:59:04.272Z,6.43
2022-08-26T17:01:31.166Z,6.78
2022-08-26T17:03:58.133Z,6.93
2022-08-26T17:06:25.409Z,7.40
2022-08-26T17:08:53.013Z,6.53
2022-08-26T17:11:20.043Z,6.63
2022-08-26T17:13:47.039Z,6.75
2022-08-26T17:16:15.314Z,6.63
2022-08-26T17:18:42.465Z,7.70
2022-08-26T17:21:14.238Z,7.47
2022-08-26T17:23:44.137Z,7.33
2022-08-26T17:26:12.276Z,7.50
2022-08-26T17:28:40.546Z,7.50
2022-08-26T17:31:09.423Z,6.97
2022-08-26T17:33:36.430Z,7.82
2022-08-26T17:36:08.098Z,8.20
2022-08-26T17:38:36.908Z,7.72
2022-08-26T17:41:12.280Z,8.57
2022-08-26T17:43:40.279Z,8.15
2022-08-26T17:46:09.889Z,8.52
2022-08-26T17:48:38.957Z,8.27
2022-08-26T17:51:13.682Z,8.13
2022-08-26T17:53:41.734Z,7.90
2022-08-26T17:56:12.318Z,8.88
2022-08-26T17:58:41.373Z,8.30
2022-08-26T18:01:22.235Z,9.05
2022-08-26T18:03:49.489Z,8.82
2022-08-26T18:06:16.641Z,9.60
2022-08-26T18:08:45.127Z,6.40
2022-08-26T18:11:19.036Z,5.80
2022-08-26T18:13:47.607Z,5.05
2022-08-26T18:16:17.560Z,6.32
2022-08-26T18:18:44.967Z,5.85
2022-08-26T18:21:16.165Z,5.47
2022-08-26T18:23:45.724Z,5.80
2022-08-26T18:26:26.136Z,6.10
2022-08-26T18:28:54.031Z,6.00
2022-08-26T18:31:21.427Z,5.32
2022-08-26T18:33:48.407Z,6.22
2022-08-26T18:36:25.329Z,5.90
2022-08-26T18:38:53.327Z,6.65
2022-08-26T18:41:22.900Z,6.78
2022-08-26T18:43:51.775Z,4.90
2022-08-26T18:46:22.049Z,4.80
2022-08-26T18:48:51.421Z,4.45
2022-08-26T18:51:30.243Z,3.83
2022-08-26T18:53:58.388Z,3.58
2022-08-26T18:56:25.652Z,4.35
2022-08-26T18:58:52.581Z,4.47
2022-08-26T19:01:25.437Z,4.60
2022-08-26T19:03:54.594Z,4.22
2022-08-26T19:06:23.883Z,4.75
2022-08-26T19:08:50.809Z,4.53
2022-08-26T19:11:31.241Z,4.70
2022-08-26T19:13:58.942Z,4.78
2022-08-26T19:16:27.306Z,4.47
2022-08-26T19:18:55.379Z,4.72
2022-08-26T19:21:23.411Z,4.75
2022-08-26T19:23:51.246Z,5.40
2022-08-26T19:26:18.400Z,5.00
2022-08-26T19:28:45.375Z,5.75
2022-08-26T19:31:13.024Z,5.22
2022-08-26T19:33:43.022Z,4.80
2022-08-26T19:36:17.532Z,5.50
2022-08-26T19:38:45.747Z,5.40
2022-08-26T19:41:16.221Z,5.47
2022-08-26T19:43:44.274Z,5.50
2022-08-26T19:46:21.655Z,5.57
2022-08-26T19:48:52.830Z,5.57
2022-08-26T19:51:31.796Z,6.07
2022-08-26T19:54:00.735Z,5.70
2022-08-26T19:56:28.880Z,6.38
2022-08-26T19:58:56.462Z,6.63
2022-08-26T20:01:24.718Z,6.13
2022-08-26T20:03:51.797Z,7.15
2022-08-26T20:06:20.055Z,6.72
2022-08-26T20:08:47.563Z,6.00
2022-08-26T20:11:18.646Z,6.10
2022-08-26T20:13:47.519Z,6.40
2022-08-26T20:16:16.167Z,5.80
2022-08-26T20:19:03.257Z,6.50
2022-08-26T20:21:35.604Z,6.57
2022-08-26T20:24:15.645Z,7.00
2022-08-26T20:26:45.207Z,6.75
2022-08-26T20:29:15.361Z,6.60
2022-08-26T20:31:45.528Z,6.40
2022-08-26T20:34:15.205Z,6.50
2022-08-26T20:36:44.304Z,6.35
2022-08-26T20:39:13.674Z,6.53
2022-08-26T20:41:41.044Z,6.70
2022-08-26T20:44:10.086Z,6.82
2022-08-26T20:46:37.490Z,7.00
2022-08-26T20:49:06.034Z,7.00
2022-08-26T20:51:37.835Z,6.75
2022-08-26T20:54:07.386Z,6.70
2022-08-26T20:56:35.628Z,6.35
2022-08-26T20:59:03.576Z,6.90
2022-08-26T21:01:41.945Z,6.03
2022-08-26T21:04:19.538Z,6.65
2022-08-26T21:06:52.193Z,6.45
2022-08-26T21:09:23.248Z,6.53
2022-08-26T21:11:51.207Z,6.40
2022-08-26T21:14:21.110Z,7.85
2022-08-26T21:16:48.188Z,8.48
2022-08-26T21:19:18.939Z,10.95
2022-08-26T21:21:49.287Z,12.15
2022-08-26T21:24:17.202Z,12.02
2022-08-26T21:26:45.764Z,13.45
2022-08-26T21:29:14.098Z,14.65
2022-08-26T21:31:46.568Z,14.38
2022-08-26T21:34:18.450Z,15.13
2022-08-26T21:36:47.688Z,14.85
2022-08-26T21:39:15.348Z,14.18
2022-08-26T21:41:44.477Z,13.57
2022-08-26T21:44:15.363Z,13.02
2022-08-26T21:46:45.199Z,12.52
2022-08-26T21:49:18.979Z,12.50
2022-08-26T21:51:49.824Z,14.55
2022-08-26T21:54:18.089Z,14.80
2022-08-26T21:56:47.732Z,16.10
2022-08-26T21:59:18.226Z,15.52
2022-08-26T22:01:45.499Z,16.30
2022-08-26T22:04:12.681Z,17.17
2022-08-26T22:06:44.691Z,15.93
2022-08-26T22:09:13.895Z,16.55
2022-08-26T22:11:41.920Z,14.95
2022-08-26T22:14:11.143Z,15.45
2022-08-26T22:16:40.052Z,16.30
2022-08-26T22:19:08.379Z,16.90
2022-08-26T22:21:41.946Z,15.00
2022-08-26T22:24:12.064Z,14.95
2022-08-26T22:26:39.074Z,13.73
2022-08-26T22:29:07.565Z,13.73
2022-08-26T22:31:37.235Z,13.93
2022-08-26T22:34:10.554Z,12.93
2022-08-26T22:36:43.864Z,12.98
2022-08-26T22:39:13.418Z,13.65
2022-08-26T22:41:43.352Z,13.30
2022-08-26T22:44:13.011Z,13.23
2022-08-26T22:46:42.003Z,13.02
2022-08-26T22:49:17.790Z,14.27
2022-08-26T22:51:46.073Z,13.90
2022-08-26T22:54:14.437Z,14.57
2022-08-26T22:56:41.484Z,12.73
2022-08-26T22:59:10.912Z,13.23
2022-08-26T23:01:42.293Z,13.35
2022-08-26T23:04:09.530Z,13.68
2022-08-26T23:06:38.839Z,13.98
2022-08-26T23:09:09.164Z,14.18
2022-08-26T23:11:42.230Z,14.52
2022-08-26T23:14:10.913Z,14.63
2022-08-26T23:16:43.203Z,14.40
2022-08-26T23:19:13.078Z,13.73
2022-08-26T23:21:40.757Z,13.85
2022-08-26T23:24:08.961Z,13.63
2022-08-26T23:26:38.371Z,13.32
2022-08-26T23:29:07.921Z,13.57
2022-08-26T23:31:37.266Z,13.93
2022-08-26T23:34:23.591Z,13.10
2022-08-26T23:36:53.855Z,14.20
2022-08-26T23:39:21.313Z,14.35
2022-08-26T23:41:49.312Z,14.73
2022-08-26T23:44:16.648Z,14.90
2022-08-26T23:46:43.925Z,14.68
2022-08-26T23:49:11.106Z,13.95
2022-08-26T23:51:58.006Z,15.85
2022-08-26T23:54:26.196Z,14.73
2022-08-26T23:56:53.940Z,14.13
2022-08-26T23:59:21.768Z,14.82
